TimeEST,TemperatureF,Dew PointF,Humidity,Sea Level PressureIn,VisibilityMPH,Wind Direction,Wind SpeedMPH,Gust SpeedMPH,PrecipitationIn,Events,Conditions,WindDirDegrees,DateUTC
12:53 AM,39.0,32.0,76,30.35,10.0,NE,3.5,-,N/A,,Clear,40,2012-11-29 05:53:00
1:53 AM,39.0,33.1,79,30.36,10.0,NE,3.5,-,N/A,,Clear,50,2012-11-29 06:53:00
2:53 AM,39.0,32.0,76,30.37,9.0,ENE,3.5,-,N/A,,Clear,70,2012-11-29 07:53:00
3:53 AM,39.0,33.1,79,30.37,8.0,East,4.6,-,N/A,,Clear,90,2012-11-29 08:53:00
4:53 AM,36.0,30.9,82,30.38,8.0,North,3.5,-,N/A,,Clear,10,2012-11-29 09:53:00
5:53 AM,36.0,30.9,82,30.40,9.0,NNE,4.6,-,N/A,,Clear,20,2012-11-29 10:53:00
6:53 AM,36.0,30.9,82,30.41,8.0,Calm,Calm,-,N/A,,Clear,0,2012-11-29 11:53:00
7:53 AM,37.0,32.0,82,30.42,8.0,NNE,3.5,-,N/A,,Clear,30,2012-11-29 12:53:00
8:53 AM,43.0,35.1,74,30.43,10.0,ENE,4.6,-,N/A,,Clear,60,2012-11-29 13:53:00
9:53 AM,46.9,36.0,66,30.45,10.0,East,3.5,-,N/A,,Clear,90,2012-11-29 14:53:00
11:53 AM,54.0,37.0,53,30.44,10.0,South,3.5,-,N/A,,Clear,180,2012-11-29 16:53:00
12:53 PM,55.0,33.1,43,30.41,10.0,SSE,6.9,-,N/A,,Clear,150,2012-11-29 17:53:00
1:53 PM,55.9,33.1,42,30.38,10.0,Calm,Calm,-,N/A,,Clear,0,2012-11-29 18:53:00
2:53 PM,57.0,33.1,40,30.36,10.0,Calm,Calm,-,N/A,,Clear,0,2012-11-29 19:53:00
3:53 PM,57.0,33.1,40,30.35,10.0,Calm,Calm,-,N/A,,Clear,0,2012-11-29 20:53:00
4:53 PM,55.9,34.0,44,30.35,10.0,SSE,4.6,-,N/A,,Clear,150,2012-11-29 21:53:00
5:53 PM,52.0,34.0,50,30.36,10.0,SE,3.5,-,N/A,,Clear,140,2012-11-29 22:53:00
6:53 PM,50.0,33.1,52,30.38,10.0,SSE,3.5,-,N/A,,Clear,150,2012-11-29 23:53:00
7:53 PM,48.9,30.9,50,30.38,10.0,SSE,3.5,-,N/A,,Clear,160,2012-11-30 00:53:00
8:53 PM,48.9,28.9,46,30.39,10.0,SSE,3.5,-,N/A,,Clear,160,2012-11-30 01:53:00
9:53 PM,48.0,28.9,48,30.38,10.0,SE,3.5,-,N/A,,Clear,140,2012-11-30 02:53:00
10:53 PM,42.1,28.9,60,30.39,10.0,Calm,Calm,-,N/A,,Clear,0,2012-11-30 03:53:00
11:53 PM,41.0,32.0,70,30.39,10.0,Calm,Calm,-,N/A,,Clear,0,2012-11-30 04:53:00